sensor_id;sensor_type;location;lat;lon;timestamp;pressure;altitude;pressure_sealevel;temperature;humidity
5126;BME280;63008;53.112;8.896;2023-03-03T00:01:59;102522.59;;;1.95;95.91
5126;BME280;63008;53.112;8.896;2023-03-03T00:04:00;102514.34;;;1.90;97.25
5126;BME280;63008;53.112;8.896;2023-03-03T00:06:02;102509.28;;;1.82;97.64
5126;BME280;63008;53.112;8.896;2023-03-03T00:08:04;102511.78;;;1.95;98.31
5126;BME280;63008;53.112;8.896;2023-03-03T00:10:06;102521.22;;;2.04;98.01
5126;BME280;63008;53.112;8.896;2023-03-03T00:12:20;102509.66;;;2.08;97.50
5126;BME280;63008;53.112;8.896;2023-03-03T00:14:31;102502.97;;;2.22;97.55
5126;BME280;63008;53.112;8.896;2023-03-03T00:16:41;102503.31;;;2.26;97.02
5126;BME280;63008;53.112;8.896;2023-03-03T00:18:45;102505.44;;;2.35;96.72
5126;BME280;63008;53.112;8.896;2023-03-03T00:20:52;102508.84;;;2.19;96.84
5126;BME280;63008;53.112;8.896;2023-03-03T00:22:54;102508.25;;;2.17;97.30
5126;BME280;63008;53.112;8.896;2023-03-03T00:27:28;102502.25;;;2.15;97.60
5126;BME280;63008;53.112;8.896;2023-03-03T00:29:33;102508.38;;;2.22;97.68
5126;BME280;63008;53.112;8.896;2023-03-03T00:31:35;102512.38;;;2.31;97.45
5126;BME280;63008;53.112;8.896;2023-03-03T00:33:43;102515.91;;;2.20;96.95
5126;BME280;63008;53.112;8.896;2023-03-03T00:35:45;102515.66;;;2.10;97.23
5126;BME280;63008;53.112;8.896;2023-03-03T00:37:46;102512.16;;;2.10;97.63
5126;BME280;63008;53.112;8.896;2023-03-03T00:39:48;102509.44;;;2.21;97.41
5126;BME280;63008;53.112;8.896;2023-03-03T00:41:49;102511.91;;;2.23;96.66
5126;BME280;63008;53.112;8.896;2023-03-03T00:43:50;102516.16;;;2.30;96.35
5126;BME280;63008;53.112;8.896;2023-03-03T00:45:54;102513.19;;;2.09;96.73
5126;BME280;63008;53.112;8.896;2023-03-03T00:47:56;102510.13;;;1.94;97.64
5126;BME280;63008;53.112;8.896;2023-03-03T00:52:16;102507.88;;;1.91;98.63
5126;BME280;63008;53.112;8.896;2023-03-03T00:54:17;102511.56;;;2.08;98.84
5126;BME280;63008;53.112;8.896;2023-03-03T00:56:18;102509.44;;;2.21;98.72
5126;BME280;63008;53.112;8.896;2023-03-03T00:58:20;102515.06;;;2.20;97.97
5126;BME280;63008;53.112;8.896;2023-03-03T01:00:21;102516.50;;;1.99;98.35
5126;BME280;63008;53.112;8.896;2023-03-03T01:02:22;102516.97;;;1.96;99.34
5126;BME280;63008;53.112;8.896;2023-03-03T01:04:23;102509.66;;;1.97;99.41
5126;BME280;63008;53.112;8.896;2023-03-03T01:06:24;102509.22;;;2.11;100.00
5126;BME280;63008;53.112;8.896;2023-03-03T01:08:25;102515.31;;;2.18;99.85
5126;BME280;63008;53.112;8.896;2023-03-03T01:10:30;102521.91;;;2.11;99.64
5126;BME280;63008;53.112;8.896;2023-03-03T01:12:32;102513.56;;;2.12;100.00
5126;BME280;63008;53.112;8.896;2023-03-03T01:14:33;102509.22;;;2.11;99.79
5126;BME280;63008;53.112;8.896;2023-03-03T01:16:34;102510.59;;;2.25;99.82
5126;BME280;63008;53.112;8.896;2023-03-03T01:18:35;102499.91;;;2.30;99.58
5126;BME280;63008;53.112;8.896;2023-03-03T01:20:37;102502.47;;;2.14;99.71
5126;BME280;63008;53.112;8.896;2023-03-03T01:22:38;102498.72;;;2.15;99.97
5126;BME280;63008;53.112;8.896;2023-03-03T01:24:40;102498.59;;;1.98;100.00
5126;BME280;63008;53.112;8.896;2023-03-03T01:26:41;102504.34;;;1.90;100.00
5126;BME280;63008;53.112;8.896;2023-03-03T01:28:42;102499.56;;;2.04;100.00
5126;BME280;63008;53.112;8.896;2023-03-03T01:30:43;102496.38;;;1.95;100.00
5126;BME280;63008;53.112;8.896;2023-03-03T01:32:44;102491.75;;;1.96;100.00
5126;BME280;63008;53.112;8.896;2023-03-03T01:34:45;102489.75;;;1.91;100.00
5126;BME280;63008;53.112;8.896;2023-03-03T01:36:46;102488.69;;;1.81;100.00
5126;BME280;63008;53.112;8.896;2023-03-03T01:38:47;102486.22;;;1.79;100.00
5126;BME280;63008;53.112;8.896;2023-03-03T01:40:52;102482.78;;;1.73;100.00
5126;BME280;63008;53.112;8.896;2023-03-03T01:42:54;102478.59;;;1.88;100.00
5126;BME280;63008;53.112;8.896;2023-03-03T01:45:17;102471.06;;;1.90;100.00
5126;BME280;63008;53.112;8.896;2023-03-03T01:47:27;102471.75;;;1.85;100.00
5126;BME280;63008;53.112;8.896;2023-03-03T01:49:46;102466.56;;;1.84;100.00
5126;BME280;63008;53.112;8.896;2023-03-03T01:51:53;102476.81;;;1.82;100.00
5126;BME280;63008;53.112;8.896;2023-03-03T01:54:06;102470.00;;;1.79;100.00
5126;BME280;63008;53.112;8.896;2023-03-03T01:56:11;102468.69;;;1.93;100.00
5126;BME280;63008;53.112;8.896;2023-03-03T01:58:22;102468.00;;;2.09;100.00
5126;BME280;63008;53.112;8.896;2023-03-03T02:00:26;102462.47;;;2.04;100.00
5126;BME280;63008;53.112;8.896;2023-03-03T02:02:27;102458.91;;;1.92;100.00
5126;BME280;63008;53.112;8.896;2023-03-03T02:04:29;102453.75;;;2.02;100.00
5126;BME280;63008;53.112;8.896;2023-03-03T02:06:34;102466.59;;;2.07;100.00
5126;BME280;63008;53.112;8.896;2023-03-03T02:10:50;102464.00;;;2.00;100.00
5126;BME280;63008;53.112;8.896;2023-03-03T02:12:54;102466.22;;;1.92;100.00
5126;BME280;63008;53.112;8.896;2023-03-03T02:14:55;102471.06;;;1.90;100.00
5126;BME280;63008;53.112;8.896;2023-03-03T02:16:56;102474.25;;;1.98;100.00
5126;BME280;63008;53.112;8.896;2023-03-03T02:18:57;102474.81;;;2.12;100.00
5126;BME280;63008;53.112;8.896;2023-03-03T02:21:13;102474.94;;;2.05;100.00
5126;BME280;63008;53.112;8.896;2023-03-03T02:23:26;102466.59;;;2.18;100.00
5126;BME280;63008;53.112;8.896;2023-03-03T02:25:36;102477.41;;;2.18;100.00
5126;BME280;63008;53.112;8.896;2023-03-03T02:27:40;102468.47;;;2.18;100.00
5126;BME280;63008;53.112;8.896;2023-03-03T02:29:41;102460.94;;;2.31;100.00
5126;BME280;63008;53.112;8.896;2023-03-03T02:31:42;102466.81;;;2.28;100.00
5126;BME280;63008;53.112;8.896;2023-03-03T02:33:46;102461.75;;;2.32;100.00
5126;BME280;63008;53.112;8.896;2023-03-03T02:35:47;102464.09;;;2.28;100.00
5126;BME280;63008;53.112;8.896;2023-03-03T02:37:48;102463.75;;;2.25;100.00
5126;BME280;63008;53.112;8.896;2023-03-03T02:39:50;102464.56;;;2.25;100.00
5126;BME280;63008;53.112;8.896;2023-03-03T02:42:39;102462.09;;;2.35;100.00
5126;BME280;63008;53.112;8.896;2023-03-03T02:44:33;102457.38;;;2.42;100.00
5126;BME280;63008;53.112;8.896;2023-03-03T02:46:37;102454.66;;;2.42;100.00
5126;BME280;63008;53.112;8.896;2023-03-03T02:48:38;102461.16;;;2.18;99.80
5126;BME280;63008;53.112;8.896;2023-03-03T02:50:39;102460.09;;;2.19;100.00
5126;BME280;63008;53.112;8.896;2023-03-03T02:52:40;102463.97;;;2.23;100.00
5126;BME280;63008;53.112;8.896;2023-03-03T02:54:41;102453.16;;;2.23;99.82
5126;BME280;63008;53.112;8.896;2023-03-03T02:56:42;102462.34;;;2.11;99.41
5126;BME280;63008;53.112;8.896;2023-03-03T02:58:43;102462.81;;;2.19;99.83
5126;BME280;63008;53.112;8.896;2023-03-03T03:00:44;102460.13;;;2.08;100.00
5126;BME280;63008;53.112;8.896;2023-03-03T03:02:47;102464.94;;;2.06;100.00
5126;BME280;63008;53.112;8.896;2023-03-03T03:04:48;102461.75;;;2.20;100.00
5126;BME280;63008;53.112;8.896;2023-03-03T03:06:49;102464.34;;;2.15;99.78
5126;BME280;63008;53.112;8.896;2023-03-03T03:08:50;102459.53;;;2.06;100.00
5126;BME280;63008;53.112;8.896;2023-03-03T03:10:51;102457.53;;;2.13;99.58
5126;BME280;63008;53.112;8.896;2023-03-03T03:12:52;102454.59;;;2.14;99.09
5126;BME280;63008;53.112;8.896;2023-03-03T03:14:53;102449.97;;;2.15;99.22
5126;BME280;63008;53.112;8.896;2023-03-03T03:16:54;102461.53;;;2.22;98.67
5126;BME280;63008;53.112;8.896;2023-03-03T03:18:55;102467.16;;;2.20;98.49
5126;BME280;63008;53.112;8.896;2023-03-03T03:20:56;102457.63;;;1.95;98.66
5126;BME280;63008;53.112;8.896;2023-03-03T03:22:57;102459.28;;;2.07;99.07
5126;BME280;63008;53.112;8.896;2023-03-03T03:24:58;102464.84;;;2.12;99.03
5126;BME280;63008;53.112;8.896;2023-03-03T03:26:59;102459.03;;;2.20;99.21
5126;BME280;63008;53.112;8.896;2023-03-03T03:29:00;102463.88;;;2.07;98.98
5126;BME280;63008;53.112;8.896;2023-03-03T03:31:03;102470.47;;;2.11;99.26
5126;BME280;63008;53.112;8.896;2023-03-03T03:33:05;102470.22;;;2.01;99.50
5126;BME280;63008;53.112;8.896;2023-03-03T03:35:06;102468.56;;;2.00;99.61
5126;BME280;63008;53.112;8.896;2023-03-03T03:37:07;102475.19;;;2.04;100.00
5126;BME280;63008;53.112;8.896;2023-03-03T03:39:09;102474.59;;;2.13;100.00
5126;BME280;63008;53.112;8.896;2023-03-03T03:41:11;102468.00;;;2.09;100.00
5126;BME280;63008;53.112;8.896;2023-03-03T03:43:12;102472.13;;;2.00;100.00
5126;BME280;63008;53.112;8.896;2023-03-03T03:45:13;102465.66;;;2.01;100.00
5126;BME280;63008;53.112;8.896;2023-03-03T03:47:14;102467.88;;;2.04;100.00
5126;BME280;63008;53.112;8.896;2023-03-03T03:49:15;102473.06;;;2.17;100.00
5126;BME280;63008;53.112;8.896;2023-03-03T03:51:16;102477.06;;;2.15;100.00
5126;BME280;63008;53.112;8.896;2023-03-03T03:53:18;102477.41;;;2.18;100.00
5126;BME280;63008;53.112;8.896;2023-03-03T03:55:19;102483.91;;;2.17;100.00
5126;BME280;63008;53.112;8.896;2023-03-03T03:57:20;102495.09;;;2.21;100.00
5126;BME280;63008;53.112;8.896;2023-03-03T03:59:21;102490.47;;;2.10;99.64
5126;BME280;63008;53.112;8.896;2023-03-03T04:01:22;102489.19;;;2.12;99.85
5126;BME280;63008;53.112;8.896;2023-03-03T04:03:23;102493.41;;;2.08;99.99
5126;BME280;63008;53.112;8.896;2023-03-03T04:05:24;102489.78;;;2.14;100.00
5126;BME280;63008;53.112;8.896;2023-03-03T04:07:25;102488.00;;;2.20;100.00
5126;BME280;63008;53.112;8.896;2023-03-03T04:09:26;102491.06;;;2.23;100.00
5126;BME280;63008;53.112;8.896;2023-03-03T04:11:28;102483.66;;;2.30;99.82
5126;BME280;63008;53.112;8.896;2023-03-03T04:13:29;102488.13;;;2.25;99.84
5126;BME280;63008;53.112;8.896;2023-03-03T04:15:31;102480.94;;;2.30;99.76
5126;BME280;63008;53.112;8.896;2023-03-03T04:17:32;102482.25;;;2.28;99.70
5126;BME280;63008;53.112;8.896;2023-03-03T04:19:33;102479.53;;;2.28;100.00
5126;BME280;63008;53.112;8.896;2023-03-03T04:21:34;102474.81;;;2.35;99.84
5126;BME280;63008;53.112;8.896;2023-03-03T04:23:35;102473.50;;;2.37;99.71
5126;BME280;63008;53.112;8.896;2023-03-03T04:25:36;102474.94;;;2.40;99.47
5126;BME280;63008;53.112;8.896;2023-03-03T04:27:37;102469.13;;;2.48;99.40
5126;BME280;63008;53.112;8.896;2023-03-03T04:29:38;102467.00;;;2.50;99.03
5126;BME280;63008;53.112;8.896;2023-03-03T04:31:39;102472.56;;;2.43;98.74
5126;BME280;63008;53.112;8.896;2023-03-03T04:33:40;102468.81;;;2.33;99.00
5126;BME280;63008;53.112;8.896;2023-03-03T04:35:41;102472.22;;;2.28;99.40
5126;BME280;63008;53.112;8.896;2023-03-03T04:37:42;102470.09;;;2.19;99.82
5126;BME280;63008;53.112;8.896;2023-03-03T04:39:43;102465.06;;;2.22;100.00
5126;BME280;63008;53.112;8.896;2023-03-03T04:41:44;102467.41;;;2.30;100.00
5126;BME280;63008;53.112;8.896;2023-03-03T04:43:45;102465.75;;;2.29;100.00
5126;BME280;63008;53.112;8.896;2023-03-03T04:45:46;102461.63;;;2.27;99.99
5126;BME280;63008;53.112;8.896;2023-03-03T04:47:47;102456.91;;;2.34;100.00
5126;BME280;63008;53.112;8.896;2023-03-03T04:49:48;102454.78;;;2.36;100.00
5126;BME280;63008;53.112;8.896;2023-03-03T04:51:49;102457.66;;;2.29;99.76
5126;BME280;63008;53.112;8.896;2023-03-03T04:53:50;102451.97;;;2.31;100.00
5126;BME280;63008;53.112;8.896;2023-03-03T04:55:54;102450.31;;;2.30;100.00
5126;BME280;63008;53.112;8.896;2023-03-03T04:57:55;102444.56;;;2.38;100.00
5126;BME280;63008;53.112;8.896;2023-03-03T04:59:56;102445.47;;;2.43;100.00
5126;BME280;63008;53.112;8.896;2023-03-03T05:01:57;102445.81;;;2.47;100.00
5126;BME280;63008;53.112;8.896;2023-03-03T05:03:58;102442.06;;;2.48;100.00
5126;BME280;63008;53.112;8.896;2023-03-03T05:05:59;102445.34;;;2.50;100.00
5126;BME280;63008;53.112;8.896;2023-03-03T05:08:00;102444.53;;;2.49;100.00
5126;BME280;63008;53.112;8.896;2023-03-03T05:10:01;102445.94;;;2.52;100.00
5126;BME280;63008;53.112;8.896;2023-03-03T05:12:02;102438.72;;;2.57;100.00
5126;BME280;63008;53.112;8.896;2023-03-03T05:14:03;102439.44;;;2.64;100.00
5126;BME280;63008;53.112;8.896;2023-03-03T05:16:04;102439.22;;;2.54;100.00
5126;BME280;63008;53.112;8.896;2023-03-03T05:18:05;102438.75;;;2.46;100.00
5126;BME280;63008;53.112;8.896;2023-03-03T05:20:07;102444.28;;;2.51;100.00
5126;BME280;63008;53.112;8.896;2023-03-03T05:22:10;102436.41;;;2.49;99.92
5126;BME280;63008;53.112;8.896;2023-03-03T05:24:12;102435.84;;;2.47;99.86
5126;BME280;63008;53.112;8.896;2023-03-03T05:26:13;102432.03;;;2.60;100.00
5126;BME280;63008;53.112;8.896;2023-03-03T05:28:15;102433.28;;;2.69;99.81
5126;BME280;63008;53.112;8.896;2023-03-03T05:30:16;102445.44;;;2.66;99.59
5126;BME280;63008;53.112;8.896;2023-03-03T05:32:17;102438.13;;;2.67;99.39
5126;BME280;63008;53.112;8.896;2023-03-03T05:34:18;102437.75;;;2.63;99.49
5126;BME280;63008;53.112;8.896;2023-03-03T05:36:19;102446.38;;;2.60;99.49
5126;BME280;63008;53.112;8.896;2023-03-03T05:38:21;102446.25;;;2.67;99.79
5126;BME280;63008;53.112;8.896;2023-03-03T05:40:22;102448.16;;;2.66;99.79
5126;BME280;63008;53.112;8.896;2023-03-03T05:42:23;102436.97;;;2.63;99.93
5126;BME280;63008;53.112;8.896;2023-03-03T05:44:25;102447.09;;;2.67;99.80
5126;BME280;63008;53.112;8.896;2023-03-03T05:46:27;102452.13;;;2.75;99.86
5126;BME280;63008;53.112;8.896;2023-03-03T05:48:28;102444.47;;;2.72;99.61
5126;BME280;63008;53.112;8.896;2023-03-03T05:50:29;102446.78;;;2.80;99.41
5126;BME280;63008;53.112;8.896;2023-03-03T05:52:30;102463.66;;;2.71;99.45
5126;BME280;63008;53.112;8.896;2023-03-03T05:54:31;102463.91;;;2.69;99.69
5126;BME280;63008;53.112;8.896;2023-03-03T05:56:32;102469.91;;;2.71;99.73
5126;BME280;63008;53.112;8.896;2023-03-03T05:58:33;102461.78;;;2.71;99.82
5126;BME280;63008;53.112;8.896;2023-03-03T06:00:34;102466.50;;;2.76;100.00
5126;BME280;63008;53.112;8.896;2023-03-03T06:02:35;102458.03;;;2.72;100.00
5126;BME280;63008;53.112;8.896;2023-03-03T06:04:36;102464.41;;;2.66;100.00
5126;BME280;63008;53.112;8.896;2023-03-03T06:06:37;102467.13;;;2.66;100.00
5126;BME280;63008;53.112;8.896;2023-03-03T06:08:38;102464.03;;;2.74;100.00
5126;BME280;63008;53.112;8.896;2023-03-03T06:10:39;102472.38;;;2.73;100.00
5126;BME280;63008;53.112;8.896;2023-03-03T06:12:40;102475.00;;;2.68;100.00
5126;BME280;63008;53.112;8.896;2023-03-03T06:14:41;102479.13;;;2.70;100.00
5126;BME280;63008;53.112;8.896;2023-03-03T06:16:42;102484.06;;;2.73;100.00
5126;BME280;63008;53.112;8.896;2023-03-03T06:18:43;102480.94;;;2.81;100.00
5126;BME280;63008;53.112;8.896;2023-03-03T06:20:44;102485.00;;;2.79;100.00
5126;BME280;63008;53.112;8.896;2023-03-03T06:22:45;102482.63;;;2.71;100.00
5126;BME280;63008;53.112;8.896;2023-03-03T06:24:46;102476.50;;;2.75;99.86
5126;BME280;63008;53.112;8.896;2023-03-03T06:26:47;102486.06;;;2.78;99.38
5126;BME280;63008;53.112;8.896;2023-03-03T06:28:48;102489.22;;;2.86;99.33
5126;BME280;63008;53.112;8.896;2023-03-03T06:30:56;102492.25;;;2.90;99.58
5126;BME280;63008;53.112;8.896;2023-03-03T06:32:57;102490.38;;;2.90;99.41
5126;BME280;63008;53.112;8.896;2023-03-03T06:34:58;102493.44;;;2.94;99.33
5126;BME280;63008;53.112;8.896;2023-03-03T06:36:59;102495.22;;;2.88;99.55
5126;BME280;63008;53.112;8.896;2023-03-03T06:39:00;102498.50;;;2.90;99.67
5126;BME280;63008;53.112;8.896;2023-03-03T06:41:01;102494.00;;;2.96;99.67
5126;BME280;63008;53.112;8.896;2023-03-03T06:43:06;102493.66;;;2.92;99.56
5126;BME280;63008;53.112;8.896;2023-03-03T06:45:08;102488.19;;;3.04;99.12
5126;BME280;63008;53.112;8.896;2023-03-03T06:47:09;102492.84;;;2.92;99.02
5126;BME280;63008;53.112;8.896;2023-03-03T06:49:10;102498.72;;;3.00;99.23
5126;BME280;63008;53.112;8.896;2023-03-03T06:51:21;102493.41;;;3.05;98.82
5126;BME280;63008;53.112;8.896;2023-03-03T06:53:24;102495.63;;;3.08;98.90
5126;BME280;63008;53.112;8.896;2023-03-03T06:55:26;102507.88;;;2.99;98.86
5126;BME280;63008;53.112;8.896;2023-03-03T06:57:29;102508.34;;;3.08;99.49
5126;BME280;63008;53.112;8.896;2023-03-03T06:59:30;102511.97;;;2.85;99.27
5126;BME280;63008;53.112;8.896;2023-03-03T07:01:36;102518.91;;;2.81;99.68
5126;BME280;63008;53.112;8.896;2023-03-03T07:03:37;102520.56;;;2.82;99.88
5126;BME280;63008;53.112;8.896;2023-03-03T07:05:38;102508.53;;;2.78;99.75
5126;BME280;63008;53.112;8.896;2023-03-03T07:07:39;102518.44;;;2.84;99.71
5126;BME280;63008;53.112;8.896;2023-03-03T07:09:43;102516.63;;;3.01;99.50
5126;BME280;63008;53.112;8.896;2023-03-03T07:11:45;102522.50;;;3.10;99.11
5126;BME280;63008;53.112;8.896;2023-03-03T07:13:50;102522.50;;;3.10;98.48
5126;BME280;63008;53.112;8.896;2023-03-03T07:15:53;102522.94;;;3.18;98.44
5126;BME280;63008;53.112;8.896;2023-03-03T07:17:55;102528.47;;;3.23;98.81
5126;BME280;63008;53.112;8.896;2023-03-03T07:20:00;102534.38;;;3.20;98.77
5126;BME280;63008;53.112;8.896;2023-03-03T07:22:13;102534.88;;;3.17;98.74
5126;BME280;63008;53.112;8.896;2023-03-03T07:26:33;102529.19;;;3.19;98.46
5126;BME280;63008;53.112;8.896;2023-03-03T07:28:34;102533.50;;;3.31;98.72
5126;BME280;63008;53.112;8.896;2023-03-03T07:30:35;102538.28;;;3.41;98.10
5126;BME280;63008;53.112;8.896;2023-03-03T07:32:39;102534.94;;;3.50;98.04
5126;BME280;63008;53.112;8.896;2023-03-03T07:34:45;102538.44;;;3.62;97.64
5126;BME280;63008;53.112;8.896;2023-03-03T07:36:53;102531.16;;;3.51;97.22
5126;BME280;63008;53.112;8.896;2023-03-03T07:39:32;102540.22;;;3.56;95.90
5126;BME280;63008;53.112;8.896;2023-03-03T07:41:34;102537.78;;;3.71;96.05
5126;BME280;63008;53.112;8.896;2023-03-03T07:43:42;102534.84;;;3.73;95.46
5126;BME280;63008;53.112;8.896;2023-03-03T07:45:48;102539.84;;;3.81;94.87
5126;BME280;63008;53.112;8.896;2023-03-03T07:47:49;102524.72;;;3.85;94.75
5126;BME280;63008;53.112;8.896;2023-03-03T07:49:51;102522.25;;;3.83;94.78
5126;BME280;63008;53.112;8.896;2023-03-03T07:51:55;102522.53;;;3.98;94.59
5126;BME280;63008;53.112;8.896;2023-03-03T07:54:32;102524.16;;;3.99;94.07
5126;BME280;63008;53.112;8.896;2023-03-03T07:56:34;102535.09;;;3.88;93.33
5126;BME280;63008;53.112;8.896;2023-03-03T07:58:38;102534.53;;;4.02;93.78
5126;BME280;63008;53.112;8.896;2023-03-03T08:02:46;102522.94;;;4.07;92.86
5126;BME280;63008;53.112;8.896;2023-03-03T08:04:51;102532.06;;;4.17;92.06
5126;BME280;63008;53.112;8.896;2023-03-03T08:06:59;102523.56;;;4.30;92.34
5126;BME280;63008;53.112;8.896;2023-03-03T08:11:10;102523.97;;;4.39;90.97
5126;BME280;63008;53.112;8.896;2023-03-03T08:13:23;102520.09;;;4.35;91.31
5126;BME280;63008;53.112;8.896;2023-03-03T08:15:28;102527.97;;;4.53;90.71
5126;BME280;63008;53.112;8.896;2023-03-03T08:17:35;102521.19;;;4.72;90.19
5126;BME280;63008;53.112;8.896;2023-03-03T08:19:36;102532.25;;;4.87;88.95
5126;BME280;63008;53.112;8.896;2023-03-03T08:21:37;102529.31;;;4.88;89.65
5126;BME280;63008;53.112;8.896;2023-03-03T08:23:38;102531.81;;;4.73;88.09
5126;BME280;63008;53.112;8.896;2023-03-03T08:25:40;102531.69;;;4.85;88.63
5126;BME280;63008;53.112;8.896;2023-03-03T08:27:42;102533.91;;;4.88;89.07
5126;BME280;63008;53.112;8.896;2023-03-03T08:29:43;102535.81;;;4.87;88.23
5126;BME280;63008;53.112;8.896;2023-03-03T08:31:43;102526.38;;;4.73;88.11
5126;BME280;63008;53.112;8.896;2023-03-03T08:33:45;102540.72;;;4.69;87.75
5126;BME280;63008;53.112;8.896;2023-03-03T08:35:46;102534.59;;;5.00;87.25
5126;BME280;63008;53.112;8.896;2023-03-03T08:37:48;102534.66;;;5.05;85.68
5126;BME280;63008;53.112;8.896;2023-03-03T08:39:49;102522.19;;;5.09;85.95
5126;BME280;63008;53.112;8.896;2023-03-03T08:41:50;102529.38;;;5.15;86.10
5126;BME280;63008;53.112;8.896;2023-03-03T08:43:51;102529.78;;;5.28;85.50
5126;BME280;63008;53.112;8.896;2023-03-03T08:45:53;102524.72;;;5.36;85.21
5126;BME280;63008;53.112;8.896;2023-03-03T08:47:57;102525.00;;;4.92;85.42
5126;BME280;63008;53.112;8.896;2023-03-03T08:49:59;102525.88;;;4.76;87.67
5126;BME280;63008;53.112;8.896;2023-03-03T08:52:00;102528.91;;;5.01;88.09
5126;BME280;63008;53.112;8.896;2023-03-03T08:54:01;102532.69;;;5.22;87.22
5126;BME280;63008;53.112;8.896;2023-03-03T08:56:03;102532.13;;;5.41;85.36
5126;BME280;63008;53.112;8.896;2023-03-03T08:58:05;102536.88;;;5.29;84.52
5126;BME280;63008;53.112;8.896;2023-03-03T09:00:09;102532.13;;;4.98;86.97
5126;BME280;63008;53.112;8.896;2023-03-03T09:02:10;102530.25;;;5.20;85.80
5126;BME280;63008;53.112;8.896;2023-03-03T09:04:11;102539.97;;;5.37;86.02
5126;BME280;63008;53.112;8.896;2023-03-03T09:06:12;102537.38;;;5.47;86.75
5126;BME280;63008;53.112;8.896;2023-03-03T09:08:13;102537.25;;;5.64;84.96
5126;BME280;63008;53.112;8.896;2023-03-03T09:10:17;102535.06;;;5.87;83.42
5126;BME280;63008;53.112;8.896;2023-03-03T09:12:24;102551.09;;;5.84;82.57
5126;BME280;63008;53.112;8.896;2023-03-03T09:14:30;102542.50;;;5.70;84.28
5126;BME280;63008;53.112;8.896;2023-03-03T09:16:36;102547.91;;;5.92;83.03
5126;BME280;63008;53.112;8.896;2023-03-03T09:18:38;102543.31;;;5.97;82.73
5126;BME280;63008;53.112;8.896;2023-03-03T09:22:43;102544.63;;;6.21;80.68
5126;BME280;63008;53.112;8.896;2023-03-03T09:24:45;102549.75;;;6.13;80.12
5126;BME280;63008;53.112;8.896;2023-03-03T09:26:47;102546.09;;;6.02;81.14
5126;BME280;63008;53.112;8.896;2023-03-03T09:28:48;102543.25;;;5.87;81.65
5126;BME280;63008;53.112;8.896;2023-03-03T09:30:50;102547.13;;;5.96;80.70
5126;BME280;63008;53.112;8.896;2023-03-03T09:32:55;102548.09;;;6.12;80.30
5126;BME280;63008;53.112;8.896;2023-03-03T09:34:56;102545.94;;;6.14;80.72
5126;BME280;63008;53.112;8.896;2023-03-03T09:36:57;102546.97;;;6.08;80.63
5126;BME280;63008;53.112;8.896;2023-03-03T09:39:00;102541.81;;;6.11;81.70
5126;BME280;63008;53.112;8.896;2023-03-03T09:44:12;102547.00;;;6.13;81.38
5126;BME280;63008;53.112;8.896;2023-03-03T09:46:43;102542.81;;;6.00;80.37
5126;BME280;63008;53.112;8.896;2023-03-03T09:49:19;102546.81;;;6.24;81.03
5126;BME280;63008;53.112;8.896;2023-03-03T09:56:36;102540.31;;;6.67;77.30
5126;BME280;63008;53.112;8.896;2023-03-03T09:59:11;102540.63;;;6.75;76.92
5126;BME280;63008;53.112;8.896;2023-03-03T10:01:42;102539.34;;;6.93;76.56
5126;BME280;63008;53.112;8.896;2023-03-03T10:13:41;102539.72;;;7.11;77.71
5126;BME280;63008;53.112;8.896;2023-03-03T10:17:52;102541.03;;;8.45;72.01
5126;BME280;63008;53.112;8.896;2023-03-03T10:20:09;102545.94;;;8.58;71.03
5126;BME280;63008;53.112;8.896;2023-03-03T10:22:18;102541.84;;;8.35;69.40
5126;BME280;63008;53.112;8.896;2023-03-03T10:24:28;102537.19;;;8.01;69.87
5126;BME280;63008;53.112;8.896;2023-03-03T10:26:50;102541.56;;;7.77;70.07
5126;BME280;63008;53.112;8.896;2023-03-03T10:31:27;102549.97;;;7.50;72.57
5126;BME280;63008;53.112;8.896;2023-03-03T10:33:41;102538.03;;;7.00;72.86
5126;BME280;63008;53.112;8.896;2023-03-03T10:43:29;102553.53;;;7.61;71.41
5126;BME280;63008;53.112;8.896;2023-03-03T10:45:54;102552.16;;;7.58;70.60
5126;BME280;63008;53.112;8.896;2023-03-03T10:52:46;102545.31;;;7.56;70.83
5126;BME280;63008;53.112;8.896;2023-03-03T10:57:11;102544.84;;;7.79;68.81
5126;BME280;63008;53.112;8.896;2023-03-03T11:01:58;102538.75;;;7.57;69.79
5126;BME280;63008;53.112;8.896;2023-03-03T11:05:11;102537.69;;;7.63;69.35
5126;BME280;63008;53.112;8.896;2023-03-03T11:06:54;102540.72;;;7.71;69.98
5126;BME280;63008;53.112;8.896;2023-03-03T11:09:07;102534.72;;;7.74;69.00
5126;BME280;63008;53.112;8.896;2023-03-03T11:13:44;102532.19;;;7.43;70.30
5126;BME280;63008;53.112;8.896;2023-03-03T11:16:04;102527.53;;;7.43;70.73
5126;BME280;63008;53.112;8.896;2023-03-03T11:18:33;102525.41;;;7.70;70.85
5126;BME280;63008;53.112;8.896;2023-03-03T11:20:54;102525.72;;;7.79;69.96
5126;BME280;63008;53.112;8.896;2023-03-03T11:23:05;102529.47;;;7.53;69.95
5126;BME280;63008;53.112;8.896;2023-03-03T11:25:18;102522.97;;;7.84;71.61
5126;BME280;63008;53.112;8.896;2023-03-03T11:28:42;102523.53;;;7.96;70.64
5126;BME280;63008;53.112;8.896;2023-03-03T11:30:38;102514.75;;;7.89;70.50
5126;BME280;63008;53.112;8.896;2023-03-03T11:35:34;102520.75;;;7.71;69.26
5126;BME280;63008;53.112;8.896;2023-03-03T11:37:45;102520.50;;;7.82;68.32
5126;BME280;63008;53.112;8.896;2023-03-03T11:39:49;102513.69;;;7.85;68.60
5126;BME280;63008;53.112;8.896;2023-03-03T11:42:10;102516.13;;;7.81;69.05
5126;BME280;63008;53.112;8.896;2023-03-03T11:44:24;102511.78;;;7.85;69.48
5126;BME280;63008;53.112;8.896;2023-03-03T11:46:49;102506.56;;;7.89;69.66
5126;BME280;63008;53.112;8.896;2023-03-03T11:49:03;102507.09;;;7.71;70.53
5126;BME280;63008;53.112;8.896;2023-03-03T11:51:13;102503.56;;;7.80;70.26
5126;BME280;63008;53.112;8.896;2023-03-03T11:53:22;102503.28;;;7.87;70.11
5126;BME280;63008;53.112;8.896;2023-03-03T11:55:38;102504.09;;;7.72;69.93
5126;BME280;63008;53.112;8.896;2023-03-03T11:57:47;102503.84;;;7.79;70.04
5126;BME280;63008;53.112;8.896;2023-03-03T12:02:46;102484.97;;;7.92;69.25
5126;BME280;63008;53.112;8.896;2023-03-03T12:04:59;102484.97;;;8.07;69.51
5126;BME280;63008;53.112;8.896;2023-03-03T12:09:29;102495.94;;;8.22;67.62
5126;BME280;63008;53.112;8.896;2023-03-03T12:16:11;102492.91;;;8.04;67.83
5126;BME280;63008;53.112;8.896;2023-03-03T12:18:37;102486.63;;;8.03;67.26